sensor_id;sensor_type;location;lat;lon;timestamp;temperature;humidity
3713;DHT22;1872;51.406;6.856;2023-03-04T00:01:50;5.70;99.90
3713;DHT22;1872;51.406;6.856;2023-03-04T00:04:16;5.70;99.90
3713;DHT22;1872;51.406;6.856;2023-03-04T00:06:41;5.70;99.90
3713;DHT22;1872;51.406;6.856;2023-03-04T00:09:07;5.70;99.90
3713;DHT22;1872;51.406;6.856;2023-03-04T00:11:33;5.70;99.90
3713;DHT22;1872;51.406;6.856;2023-03-04T00:13:59;5.70;99.90
3713;DHT22;1872;51.406;6.856;2023-03-04T00:16:25;5.70;99.90
3713;DHT22;1872;51.406;6.856;2023-03-04T00:18:54;5.70;99.90
3713;DHT22;1872;51.406;6.856;2023-03-04T00:21:20;5.70;99.90
3713;DHT22;1872;51.406;6.856;2023-03-04T00:23:46;5.60;99.90
3713;DHT22;1872;51.406;6.856;2023-03-04T00:26:12;5.60;99.90
3713;DHT22;1872;51.406;6.856;2023-03-04T00:28:38;5.70;99.90
3713;DHT22;1872;51.406;6.856;2023-03-04T00:31:05;5.70;99.90
3713;DHT22;1872;51.406;6.856;2023-03-04T00:33:31;5.70;99.90
3713;DHT22;1872;51.406;6.856;2023-03-04T00:35:57;5.70;99.90
3713;DHT22;1872;51.406;6.856;2023-03-04T00:38:22;5.70;99.90
3713;DHT22;1872;51.406;6.856;2023-03-04T00:40:48;5.70;99.90
3713;DHT22;1872;51.406;6.856;2023-03-04T00:43:14;5.70;99.90
3713;DHT22;1872;51.406;6.856;2023-03-04T00:45:40;5.70;99.90
3713;DHT22;1872;51.406;6.856;2023-03-04T00:48:06;5.70;99.90
3713;DHT22;1872;51.406;6.856;2023-03-04T00:50:32;5.70;99.90
3713;DHT22;1872;51.406;6.856;2023-03-04T00:52:57;5.70;99.90
3713;DHT22;1872;51.406;6.856;2023-03-04T00:55:23;5.70;99.90
3713;DHT22;1872;51.406;6.856;2023-03-04T00:57:49;5.70;99.90
3713;DHT22;1872;51.406;6.856;2023-03-04T01:00:15;5.70;99.90
3713;DHT22;1872;51.406;6.856;2023-03-04T01:02:41;5.70;99.90
3713;DHT22;1872;51.406;6.856;2023-03-04T01:05:07;5.70;99.90
3713;DHT22;1872;51.406;6.856;2023-03-04T01:07:33;5.70;99.90
3713;DHT22;1872;51.406;6.856;2023-03-04T01:09:58;5.80;99.90
3713;DHT22;1872;51.406;6.856;2023-03-04T01:12:24;5.80;99.90
3713;DHT22;1872;51.406;6.856;2023-03-04T01:14:50;5.80;99.90
3713;DHT22;1872;51.406;6.856;2023-03-04T01:17:15;5.80;99.90
3713;DHT22;1872;51.406;6.856;2023-03-04T01:19:41;5.80;99.90
3713;DHT22;1872;51.406;6.856;2023-03-04T01:22:07;5.80;99.90
3713;DHT22;1872;51.406;6.856;2023-03-04T01:24:32;5.80;99.90
3713;DHT22;1872;51.406;6.856;2023-03-04T01:26:58;5.70;99.90
3713;DHT22;1872;51.406;6.856;2023-03-04T01:29:24;5.70;99.90
3713;DHT22;1872;51.406;6.856;2023-03-04T01:31:49;5.70;99.90
3713;DHT22;1872;51.406;6.856;2023-03-04T01:34:15;5.80;99.90
3713;DHT22;1872;51.406;6.856;2023-03-04T01:36:42;5.80;99.90
3713;DHT22;1872;51.406;6.856;2023-03-04T01:39:08;5.70;99.90
3713;DHT22;1872;51.406;6.856;2023-03-04T01:41:33;5.80;99.90
3713;DHT22;1872;51.406;6.856;2023-03-04T01:44:00;5.80;99.90
3713;DHT22;1872;51.406;6.856;2023-03-04T01:46:27;5.70;99.90
3713;DHT22;1872;51.406;6.856;2023-03-04T01:48:53;5.70;99.90
3713;DHT22;1872;51.406;6.856;2023-03-04T01:51:19;5.70;99.90
3713;DHT22;1872;51.406;6.856;2023-03-04T01:53:46;5.70;99.90
3713;DHT22;1872;51.406;6.856;2023-03-04T01:56:18;5.70;99.90
3713;DHT22;1872;51.406;6.856;2023-03-04T01:58:43;5.80;99.90
3713;DHT22;1872;51.406;6.856;2023-03-04T02:01:11;5.80;99.90
3713;DHT22;1872;51.406;6.856;2023-03-04T02:03:37;5.80;99.90
3713;DHT22;1872;51.406;6.856;2023-03-04T02:06:04;5.70;99.90
3713;DHT22;1872;51.406;6.856;2023-03-04T02:08:29;5.70;99.90
3713;DHT22;1872;51.406;6.856;2023-03-04T02:10:55;5.70;99.90
3713;DHT22;1872;51.406;6.856;2023-03-04T02:13:21;5.70;99.90
3713;DHT22;1872;51.406;6.856;2023-03-04T02:15:47;5.70;99.90
3713;DHT22;1872;51.406;6.856;2023-03-04T02:18:19;5.70;99.90
3713;DHT22;1872;51.406;6.856;2023-03-04T02:23:38;5.70;99.90
3713;DHT22;1872;51.406;6.856;2023-03-04T02:26:19;5.70;99.90
3713;DHT22;1872;51.406;6.856;2023-03-04T02:28:48;5.70;99.90
3713;DHT22;1872;51.406;6.856;2023-03-04T02:31:29;5.70;99.90
3713;DHT22;1872;51.406;6.856;2023-03-04T02:33:57;5.60;99.90
3713;DHT22;1872;51.406;6.856;2023-03-04T02:36:23;5.60;99.90
3713;DHT22;1872;51.406;6.856;2023-03-04T02:38:51;5.60;99.90
3713;DHT22;1872;51.406;6.856;2023-03-04T02:41:23;5.60;99.90
3713;DHT22;1872;51.406;6.856;2023-03-04T02:43:53;5.60;99.90
3713;DHT22;1872;51.406;6.856;2023-03-04T02:46:20;5.60;99.90
3713;DHT22;1872;51.406;6.856;2023-03-04T02:48:45;5.60;99.90
3713;DHT22;1872;51.406;6.856;2023-03-04T02:51:11;5.70;99.90
3713;DHT22;1872;51.406;6.856;2023-03-04T02:53:37;5.70;99.90
3713;DHT22;1872;51.406;6.856;2023-03-04T02:56:03;5.70;99.90
3713;DHT22;1872;51.406;6.856;2023-03-04T02:58:29;5.60;99.90
3713;DHT22;1872;51.406;6.856;2023-03-04T03:00:54;5.60;99.90
3713;DHT22;1872;51.406;6.856;2023-03-04T03:03:20;5.60;99.90
3713;DHT22;1872;51.406;6.856;2023-03-04T03:05:46;5.60;99.90
3713;DHT22;1872;51.406;6.856;2023-03-04T03:08:12;5.60;99.90
3713;DHT22;1872;51.406;6.856;2023-03-04T03:10:37;5.60;99.90
3713;DHT22;1872;51.406;6.856;2023-03-04T03:13:03;5.60;99.90
3713;DHT22;1872;51.406;6.856;2023-03-04T03:15:29;5.60;99.90
3713;DHT22;1872;51.406;6.856;2023-03-04T03:17:54;5.70;99.90
3713;DHT22;1872;51.406;6.856;2023-03-04T03:20:20;5.60;99.90
3713;DHT22;1872;51.406;6.856;2023-03-04T03:22:46;5.60;99.90
3713;DHT22;1872;51.406;6.856;2023-03-04T03:25:14;5.60;99.90
3713;DHT22;1872;51.406;6.856;2023-03-04T03:27:40;5.60;99.90
3713;DHT22;1872;51.406;6.856;2023-03-04T03:30:07;5.60;99.90
3713;DHT22;1872;51.406;6.856;2023-03-04T03:32:33;5.60;99.90
3713;DHT22;1872;51.406;6.856;2023-03-04T03:34:59;5.60;99.90
3713;DHT22;1872;51.406;6.856;2023-03-04T03:37:24;5.70;99.90
3713;DHT22;1872;51.406;6.856;2023-03-04T03:39:50;5.60;99.90
3713;DHT22;1872;51.406;6.856;2023-03-04T03:42:15;5.60;99.90
3713;DHT22;1872;51.406;6.856;2023-03-04T03:44:41;5.70;99.90
3713;DHT22;1872;51.406;6.856;2023-03-04T03:47:07;5.60;99.90
3713;DHT22;1872;51.406;6.856;2023-03-04T03:49:33;5.70;99.90
3713;DHT22;1872;51.406;6.856;2023-03-04T03:51:58;5.70;99.90
3713;DHT22;1872;51.406;6.856;2023-03-04T03:54:24;5.70;99.90
3713;DHT22;1872;51.406;6.856;2023-03-04T03:56:50;5.70;99.90
3713;DHT22;1872;51.406;6.856;2023-03-04T03:59:15;5.70;99.90
3713;DHT22;1872;51.406;6.856;2023-03-04T04:01:41;5.70;99.90
3713;DHT22;1872;51.406;6.856;2023-03-04T04:04:08;5.70;99.90
3713;DHT22;1872;51.406;6.856;2023-03-04T04:06:33;5.70;99.90
3713;DHT22;1872;51.406;6.856;2023-03-04T04:08:59;5.70;99.90
3713;DHT22;1872;51.406;6.856;2023-03-04T04:11:25;5.70;99.90
3713;DHT22;1872;51.406;6.856;2023-03-04T04:13:50;5.70;99.90
3713;DHT22;1872;51.406;6.856;2023-03-04T04:16:16;5.70;99.90
3713;DHT22;1872;51.406;6.856;2023-03-04T04:18:42;5.70;99.90
3713;DHT22;1872;51.406;6.856;2023-03-04T04:21:08;5.60;99.90
3713;DHT22;1872;51.406;6.856;2023-03-04T04:23:34;5.60;99.90
3713;DHT22;1872;51.406;6.856;2023-03-04T04:26:00;5.60;99.90
3713;DHT22;1872;51.406;6.856;2023-03-04T04:28:25;5.60;99.90
3713;DHT22;1872;51.406;6.856;2023-03-04T04:30:51;5.60;99.90
3713;DHT22;1872;51.406;6.856;2023-03-04T04:33:16;5.60;99.90
3713;DHT22;1872;51.406;6.856;2023-03-04T04:35:42;5.60;99.90
3713;DHT22;1872;51.406;6.856;2023-03-04T04:38:08;5.60;99.90
3713;DHT22;1872;51.406;6.856;2023-03-04T04:40:35;5.60;99.90
3713;DHT22;1872;51.406;6.856;2023-03-04T04:43:01;5.60;99.90
3713;DHT22;1872;51.406;6.856;2023-03-04T04:45:26;5.60;99.90
3713;DHT22;1872;51.406;6.856;2023-03-04T04:47:53;5.60;99.90
3713;DHT22;1872;51.406;6.856;2023-03-04T04:50:19;5.60;99.90
3713;DHT22;1872;51.406;6.856;2023-03-04T04:52:45;5.60;99.90
3713;DHT22;1872;51.406;6.856;2023-03-04T04:55:11;5.60;99.90
3713;DHT22;1872;51.406;6.856;2023-03-04T04:57:37;5.60;99.90
3713;DHT22;1872;51.406;6.856;2023-03-04T05:00:04;5.60;99.90
3713;DHT22;1872;51.406;6.856;2023-03-04T05:02:30;5.60;99.90
3713;DHT22;1872;51.406;6.856;2023-03-04T05:04:56;5.60;99.90
3713;DHT22;1872;51.406;6.856;2023-03-04T05:07:21;5.60;99.90
3713;DHT22;1872;51.406;6.856;2023-03-04T05:09:47;5.60;99.90
3713;DHT22;1872;51.406;6.856;2023-03-04T05:12:13;5.60;99.90
3713;DHT22;1872;51.406;6.856;2023-03-04T05:14:39;5.60;99.90
3713;DHT22;1872;51.406;6.856;2023-03-04T05:17:04;5.60;99.90
3713;DHT22;1872;51.406;6.856;2023-03-04T05:19:30;5.60;99.90
3713;DHT22;1872;51.406;6.856;2023-03-04T05:21:56;5.60;99.90
3713;DHT22;1872;51.406;6.856;2023-03-04T05:24:21;5.60;99.90
3713;DHT22;1872;51.406;6.856;2023-03-04T05:26:47;5.60;99.90
3713;DHT22;1872;51.406;6.856;2023-03-04T05:29:13;5.60;99.90
3713;DHT22;1872;51.406;6.856;2023-03-04T05:31:38;5.60;99.90
3713;DHT22;1872;51.406;6.856;2023-03-04T05:34:04;5.60;99.90
3713;DHT22;1872;51.406;6.856;2023-03-04T05:36:30;5.60;99.90
3713;DHT22;1872;51.406;6.856;2023-03-04T05:38:55;5.60;99.90
3713;DHT22;1872;51.406;6.856;2023-03-04T05:41:21;5.60;99.90
3713;DHT22;1872;51.406;6.856;2023-03-04T05:43:48;5.60;99.90
3713;DHT22;1872;51.406;6.856;2023-03-04T05:46:15;5.60;99.90
3713;DHT22;1872;51.406;6.856;2023-03-04T05:48:43;5.60;99.90
3713;DHT22;1872;51.406;6.856;2023-03-04T05:51:09;5.60;99.90
3713;DHT22;1872;51.406;6.856;2023-03-04T05:53:35;5.60;99.90
3713;DHT22;1872;51.406;6.856;2023-03-04T05:56:14;5.60;99.90
3713;DHT22;1872;51.406;6.856;2023-03-04T05:58:39;5.60;99.90
3713;DHT22;1872;51.406;6.856;2023-03-04T06:01:05;5.60;99.90
3713;DHT22;1872;51.406;6.856;2023-03-04T06:03:32;5.60;99.90
3713;DHT22;1872;51.406;6.856;2023-03-04T06:05:58;5.70;99.90
3713;DHT22;1872;51.406;6.856;2023-03-04T06:08:24;5.70;99.90
3713;DHT22;1872;51.406;6.856;2023-03-04T06:10:54;5.70;99.90
3713;DHT22;1872;51.406;6.856;2023-03-04T06:13:20;5.70;99.90
3713;DHT22;1872;51.406;6.856;2023-03-04T06:15:46;5.70;99.90
3713;DHT22;1872;51.406;6.856;2023-03-04T06:18:12;5.70;99.90
3713;DHT22;1872;51.406;6.856;2023-03-04T06:20:38;5.70;99.90
3713;DHT22;1872;51.406;6.856;2023-03-04T06:23:04;5.60;99.90
3713;DHT22;1872;51.406;6.856;2023-03-04T06:25:30;5.60;99.90
3713;DHT22;1872;51.406;6.856;2023-03-04T06:27:56;5.70;99.90
3713;DHT22;1872;51.406;6.856;2023-03-04T06:30:22;5.70;99.90
3713;DHT22;1872;51.406;6.856;2023-03-04T06:32:48;5.70;99.90
3713;DHT22;1872;51.406;6.856;2023-03-04T06:35:15;5.70;99.90
3713;DHT22;1872;51.406;6.856;2023-03-04T06:37:41;5.70;99.90
3713;DHT22;1872;51.406;6.856;2023-03-04T06:40:09;5.70;99.90
3713;DHT22;1872;51.406;6.856;2023-03-04T06:42:35;5.70;99.90
3713;DHT22;1872;51.406;6.856;2023-03-04T06:45:02;5.70;99.90
3713;DHT22;1872;51.406;6.856;2023-03-04T06:47:29;5.70;99.90
3713;DHT22;1872;51.406;6.856;2023-03-04T06:49:54;5.70;99.90
3713;DHT22;1872;51.406;6.856;2023-03-04T06:52:20;5.70;99.90
3713;DHT22;1872;51.406;6.856;2023-03-04T06:54:46;5.70;99.90
3713;DHT22;1872;51.406;6.856;2023-03-04T06:57:12;5.70;99.90
3713;DHT22;1872;51.406;6.856;2023-03-04T06:59:38;5.70;99.90
3713;DHT22;1872;51.406;6.856;2023-03-04T07:02:04;5.70;99.90
3713;DHT22;1872;51.406;6.856;2023-03-04T07:04:30;5.70;99.90
3713;DHT22;1872;51.406;6.856;2023-03-04T07:06:55;5.70;99.90
3713;DHT22;1872;51.406;6.856;2023-03-04T07:09:21;5.70;99.90
3713;DHT22;1872;51.406;6.856;2023-03-04T07:11:47;5.80;99.90
3713;DHT22;1872;51.406;6.856;2023-03-04T07:14:12;5.70;99.90
3713;DHT22;1872;51.406;6.856;2023-03-04T07:16:39;5.80;99.90
3713;DHT22;1872;51.406;6.856;2023-03-04T07:19:04;5.80;99.90
3713;DHT22;1872;51.406;6.856;2023-03-04T07:21:30;5.80;99.90
3713;DHT22;1872;51.406;6.856;2023-03-04T07:23:56;5.80;99.90
3713;DHT22;1872;51.406;6.856;2023-03-04T07:26:22;5.80;99.90
3713;DHT22;1872;51.406;6.856;2023-03-04T07:28:48;5.80;99.90
3713;DHT22;1872;51.406;6.856;2023-03-04T07:31:23;5.70;99.90
3713;DHT22;1872;51.406;6.856;2023-03-04T07:33:50;5.80;99.90
3713;DHT22;1872;51.406;6.856;2023-03-04T07:36:15;5.80;99.90
3713;DHT22;1872;51.406;6.856;2023-03-04T07:38:46;5.80;99.90
3713;DHT22;1872;51.406;6.856;2023-03-04T07:41:12;5.80;99.90
3713;DHT22;1872;51.406;6.856;2023-03-04T07:43:38;5.90;99.90
3713;DHT22;1872;51.406;6.856;2023-03-04T07:46:04;5.90;99.90
3713;DHT22;1872;51.406;6.856;2023-03-04T07:48:29;5.90;99.90
3713;DHT22;1872;51.406;6.856;2023-03-04T07:51:22;5.90;99.90
3713;DHT22;1872;51.406;6.856;2023-03-04T07:53:51;5.90;99.90
3713;DHT22;1872;51.406;6.856;2023-03-04T07:56:24;5.90;99.90
3713;DHT22;1872;51.406;6.856;2023-03-04T07:58:51;6.00;99.90
3713;DHT22;1872;51.406;6.856;2023-03-04T08:01:26;6.10;99.90
3713;DHT22;1872;51.406;6.856;2023-03-04T08:03:52;6.20;99.90
3713;DHT22;1872;51.406;6.856;2023-03-04T08:06:19;6.20;99.90
3713;DHT22;1872;51.406;6.856;2023-03-04T08:08:46;6.30;99.90
3713;DHT22;1872;51.406;6.856;2023-03-04T08:11:19;6.40;99.90
3713;DHT22;1872;51.406;6.856;2023-03-04T08:13:46;6.40;99.90
3713;DHT22;1872;51.406;6.856;2023-03-04T08:16:13;6.50;99.90
3713;DHT22;1872;51.406;6.856;2023-03-04T08:18:44;6.60;99.90
3713;DHT22;1872;51.406;6.856;2023-03-04T08:21:11;6.70;99.90
3713;DHT22;1872;51.406;6.856;2023-03-04T08:23:38;6.80;99.90
3713;DHT22;1872;51.406;6.856;2023-03-04T08:26:13;7.00;99.90
3713;DHT22;1872;51.406;6.856;2023-03-04T08:28:40;7.20;99.90
3713;DHT22;1872;51.406;6.856;2023-03-04T08:31:05;7.40;99.90
3713;DHT22;1872;51.406;6.856;2023-03-04T08:33:32;7.50;99.90
3713;DHT22;1872;51.406;6.856;2023-03-04T08:35:58;7.50;99.90
3713;DHT22;1872;51.406;6.856;2023-03-04T08:38:24;7.50;99.90
3713;DHT22;1872;51.406;6.856;2023-03-04T08:40:55;7.40;99.90
3713;DHT22;1872;51.406;6.856;2023-03-04T08:43:21;7.40;99.90
3713;DHT22;1872;51.406;6.856;2023-03-04T08:45:48;7.40;99.90
3713;DHT22;1872;51.406;6.856;2023-03-04T08:48:14;7.40;99.90
3713;DHT22;1872;51.406;6.856;2023-03-04T08:50:40;7.40;99.90
3713;DHT22;1872;51.406;6.856;2023-03-04T08:53:07;7.30;99.90
3713;DHT22;1872;51.406;6.856;2023-03-04T08:55:33;7.20;99.90
3713;DHT22;1872;51.406;6.856;2023-03-04T08:57:58;7.20;99.90
3713;DHT22;1872;51.406;6.856;2023-03-04T09:00:26;7.20;99.90
3713;DHT22;1872;51.406;6.856;2023-03-04T09:02:51;7.10;99.90
3713;DHT22;1872;51.406;6.856;2023-03-04T09:05:17;7.10;99.90
3713;DHT22;1872;51.406;6.856;2023-03-04T09:07:43;7.10;99.90
3713;DHT22;1872;51.406;6.856;2023-03-04T09:10:09;7.00;99.90
3713;DHT22;1872;51.406;6.856;2023-03-04T09:12:35;7.10;99.90
3713;DHT22;1872;51.406;6.856;2023-03-04T09:15:01;7.10;99.90
3713;DHT22;1872;51.406;6.856;2023-03-04T09:17:27;7.00;99.90
3713;DHT22;1872;51.406;6.856;2023-03-04T09:19:53;7.10;99.90
3713;DHT22;1872;51.406;6.856;2023-03-04T09:22:19;7.20;99.90
3713;DHT22;1872;51.406;6.856;2023-03-04T09:24:44;7.20;99.90
3713;DHT22;1872;51.406;6.856;2023-03-04T09:27:10;7.30;99.90
3713;DHT22;1872;51.406;6.856;2023-03-04T09:29:38;7.30;99.90
3713;DHT22;1872;51.406;6.856;2023-03-04T09:32:04;7.30;99.90
3713;DHT22;1872;51.406;6.856;2023-03-04T09:34:29;7.30;99.90
3713;DHT22;1872;51.406;6.856;2023-03-04T09:36:55;7.40;99.90
3713;DHT22;1872;51.406;6.856;2023-03-04T09:39:21;7.40;99.90
3713;DHT22;1872;51.406;6.856;2023-03-04T09:41:49;7.40;99.90
3713;DHT22;1872;51.406;6.856;2023-03-04T09:47:33;7.50;99.90
3713;DHT22;1872;51.406;6.856;2023-03-04T09:50:08;7.60;99.90
3713;DHT22;1872;51.406;6.856;2023-03-04T10:01:54;7.50;99.90
3713;DHT22;1872;51.406;6.856;2023-03-04T10:04:21;7.50;99.90
3713;DHT22;1872;51.406;6.856;2023-03-04T10:06:52;7.50;99.90
3713;DHT22;1872;51.406;6.856;2023-03-04T10:09:27;7.50;99.90
3713;DHT22;1872;51.406;6.856;2023-03-04T10:15:34;7.70;99.90
3713;DHT22;1872;51.406;6.856;2023-03-04T10:20:57;7.90;99.90
3713;DHT22;1872;51.406;6.856;2023-03-04T10:23:27;8.00;99.90
3713;DHT22;1872;51.406;6.856;2023-03-04T10:25:56;8.00;99.90
3713;DHT22;1872;51.406;6.856;2023-03-04T10:28:28;8.00;99.90
3713;DHT22;1872;51.406;6.856;2023-03-04T10:31:01;8.10;99.90
3713;DHT22;1872;51.406;6.856;2023-03-04T10:43:24;8.00;99.90
3713;DHT22;1872;51.406;6.856;2023-03-04T10:45:56;7.90;99.90
3713;DHT22;1872;51.406;6.856;2023-03-04T10:48:41;7.90;99.90
3713;DHT22;1872;51.406;6.856;2023-03-04T10:54:52;7.90;99.90
3713;DHT22;1872;51.406;6.856;2023-03-04T10:57:33;7.80;99.90
3713;DHT22;1872;51.406;6.856;2023-03-04T11:00:02;8.00;99.90
3713;DHT22;1872;51.406;6.856;2023-03-04T11:02:35;8.00;99.90
3713;DHT22;1872;51.406;6.856;2023-03-04T11:05:21;8.00;99.90
3713;DHT22;1872;51.406;6.856;2023-03-04T11:07:59;8.00;99.90
3713;DHT22;1872;51.406;6.856;2023-03-04T11:10:30;7.90;99.90
3713;DHT22;1872;51.406;6.856;2023-03-04T11:15:28;7.90;99.90
3713;DHT22;1872;51.406;6.856;2023-03-04T11:18:03;8.00;99.90
3713;DHT22;1872;51.406;6.856;2023-03-04T11:23:05;8.20;99.90
3713;DHT22;1872;51.406;6.856;2023-03-04T11:25:56;8.30;99.90
3713;DHT22;1872;51.406;6.856;2023-03-04T11:29:19;8.40;99.90
3713;DHT22;1872;51.406;6.856;2023-03-04T11:31:32;8.50;99.90
3713;DHT22;1872;51.406;6.856;2023-03-04T11:39:16;8.60;99.90
3713;DHT22;1872;51.406;6.856;2023-03-04T11:41:52;8.50;99.90
3713;DHT22;1872;51.406;6.856;2023-03-04T11:44:19;8.50;99.90
3713;DHT22;1872;51.406;6.856;2023-03-04T12:05:59;8.20;99.90
3713;DHT22;1872;51.406;6.856;2023-03-04T12:19:13;8.20;99.90
3713;DHT22;1872;51.406;6.856;2023-03-04T12:21:53;8.20;99.90
3713;DHT22;1872;51.406;6.856;2023-03-04T12:28:09;8.40;99.90
3713;DHT22;1872;51.406;6.856;2023-03-04T12:35:58;8.60;99.90
3713;DHT22;1872;51.406;6.856;2023-03-04T12:54:46;8.20;99.90
3713;DHT22;1872;51.406;6.856;2023-03-04T12:57:23;8.20;99.90
3713;DHT22;1872;51.406;6.856;2023-03-04T13:11:52;7.90;99.90
3713;DHT22;1872;51.406;6.856;2023-03-04T13:14:24;7.90;99.90
3713;DHT22;1872;51.406;6.856;2023-03-04T13:17:01;8.00;99.90
3713;DHT22;1872;51.406;6.856;2023-03-04T13:19:56;8.10;99.90
3713;DHT22;1872;51.406;6.856;2023-03-04T13:25:01;8.20;99.90
3713;DHT22;1872;51.406;6.856;2023-03-04T13:28:01;8.10;99.90
3713;DHT22;1872;51.406;6.856;2023-03-04T13:38:32;8.30;99.90
3713;DHT22;1872;51.406;6.856;2023-03-04T13:49:01;8.30;99.90
3713;DHT22;1872;51.406;6.856;2023-03-04T13:51:38;8.30;99.90
3713;DHT22;1872;51.406;6.856;2023-03-04T13:57:21;8.30;99.90
3713;DHT22;1872;51.406;6.856;2023-03-04T13:59:48;8.30;99.90
3713;DHT22;1872;51.406;6.856;2023-03-04T14:02:20;8.20;99.90
3713;DHT22;1872;51.406;6.856;2023-03-04T14:12:48;8.10;99.90
3713;DHT22;1872;51.406;6.856;2023-03-04T14:15:28;8.10;99.90
3713;DHT22;1872;51.406;6.856;2023-03-04T14:17:57;8.10;99.90
3713;DHT22;1872;51.406;6.856;2023-03-04T14:22:56;8.10;99.90
3713;DHT22;1872;51.406;6.856;2023-03-04T14:25:26;8.10;99.90
3713;DHT22;1872;51.406;6.856;2023-03-04T14:28:10;8.10;99.90
3713;DHT22;1872;51.406;6.856;2023-03-04T14:30:36;8.20;99.90
3713;DHT22;1872;51.406;6.856;2023-03-04T14:33:06;8.20;99.90
3713;DHT22;1872;51.406;6.856;2023-03-04T14:35:33;8.30;99.90
3713;DHT22;1872;51.406;6.856;2023-03-04T14:38:00;8.30;99.90
3713;DHT22;1872;51.406;6.856;2023-03-04T14:40:30;8.40;99.90
3713;DHT22;1872;51.406;6.856;2023-03-04T14:43:07;8.40;99.90
3713;DHT22;1872;51.406;6.856;2023-03-04T14:45:38;8.50;99.90
3713;DHT22;1872;51.406;6.856;2023-03-04T14:48:05;8.40;99.90
3713;DHT22;1872;51.406;6.856;2023-03-04T14:50:32;8.40;99.90
3713;DHT22;1872;51.406;6.856;2023-03-04T14:53:24;8.40;99.90
3713;DHT22;1872;51.406;6.856;2023-03-04T14:56:05;8.40;99.90
3713;DHT22;1872;51.406;6.856;2023-03-04T14:58:33;8.40;99.90
3713;DHT22;1872;51.406;6.856;2023-03-04T15:03:54;8.30;99.90
3713;DHT22;1872;51.406;6.856;2023-03-04T15:06:24;8.20;99.90
3713;DHT22;1872;51.406;6.856;2023-03-04T15:09:15;8.20;99.90
3713;DHT22;1872;51.406;6.856;2023-03-04T15:17:39;8.00;99.90
3713;DHT22;1872;51.406;6.856;2023-03-04T15:25:17;8.00;99.90
3713;DHT22;1872;51.406;6.856;2023-03-04T15:27:47;8.00;99.90
3713;DHT22;1872;51.406;6.856;2023-03-04T15:30:17;7.90;99.90
3713;DHT22;1872;51.406;6.856;2023-03-04T15:32:43;7.90;99.90
3713;DHT22;1872;51.406;6.856;2023-03-04T15:35:11;7.80;99.90
3713;DHT22;1872;51.406;6.856;2023-03-04T15:37:38;7.80;99.90
3713;DHT22;1872;51.406;6.856;2023-03-04T15:40:15;7.80;99.90
3713;DHT22;1872;51.406;6.856;2023-03-04T15:42:42;7.80;99.90
3713;DHT22;1872;51.406;6.856;2023-03-04T15:45:31;7.80;99.90
3713;DHT22;1872;51.406;6.856;2023-03-04T15:48:02;7.70;99.90
3713;DHT22;1872;51.406;6.856;2023-03-04T15:50:36;7.70;99.90
3713;DHT22;1872;51.406;6.856;2023-03-04T15:53:05;7.70;99.90
3713;DHT22;1872;51.406;6.856;2023-03-04T15:55:34;7.70;99.90
3713;DHT22;1872;51.406;6.856;2023-03-04T15:58:00;7.70;99.90
3713;DHT22;1872;51.406;6.856;2023-03-04T16:00:27;7.70;99.90
3713;DHT22;1872;51.406;6.856;2023-03-04T16:02:53;7.70;99.90
3713;DHT22;1872;51.406;6.856;2023-03-04T16:05:19;7.70;99.90
3713;DHT22;1872;51.406;6.856;2023-03-04T16:07:48;7.70;99.90
3713;DHT22;1872;51.406;6.856;2023-03-04T16:10:20;7.70;99.90
3713;DHT22;1872;51.406;6.856;2023-03-04T16:12:50;7.70;99.90
3713;DHT22;1872;51.406;6.856;2023-03-04T16:15:21;7.70;99.90
3713;DHT22;1872;51.406;6.856;2023-03-04T16:17:48;7.70;99.90
3713;DHT22;1872;51.406;6.856;2023-03-04T16:20:16;7.70;99.90
3713;DHT22;1872;51.406;6.856;2023-03-04T16:22:44;7.70;99.90
3713;DHT22;1872;51.406;6.856;2023-03-04T16:25:15;7.70;99.90
3713;DHT22;1872;51.406;6.856;2023-03-04T16:27:41;7.60;99.90
3713;DHT22;1872;51.406;6.856;2023-03-04T16:30:13;7.60;99.90
3713;DHT22;1872;51.406;6.856;2023-03-04T16:32:41;7.60;99.90
3713;DHT22;1872;51.406;6.856;2023-03-04T16:35:07;7.60;99.90
3713;DHT22;1872;51.406;6.856;2023-03-04T16:37:32;7.60;99.90
3713;DHT22;1872;51.406;6.856;2023-03-04T16:39:58;7.60;99.90
3713;DHT22;1872;51.406;6.856;2023-03-04T16:42:24;7.60;99.90
3713;DHT22;1872;51.406;6.856;2023-03-04T16:44:56;7.70;99.90
3713;DHT22;1872;51.406;6.856;2023-03-04T16:47:22;7.60;99.90
3713;DHT22;1872;51.406;6.856;2023-03-04T16:49:49;7.60;99.90
3713;DHT22;1872;51.406;6.856;2023-03-04T16:54:47;7.70;99.90
3713;DHT22;1872;51.406;6.856;2023-03-04T16:57:14;7.70;99.90
3713;DHT22;1872;51.406;6.856;2023-03-04T16:59:41;7.60;99.90
3713;DHT22;1872;51.406;6.856;2023-03-04T17:02:17;7.60;99.90
3713;DHT22;1872;51.406;6.856;2023-03-04T17:04:47;7.60;99.90
3713;DHT22;1872;51.406;6.856;2023-03-04T17:07:13;7.50;99.90
3713;DHT22;1872;51.406;6.856;2023-03-04T17:09:40;7.50;99.90
3713;DHT22;1872;51.406;6.856;2023-03-04T17:12:08;7.60;99.90
3713;DHT22;1872;51.406;6.856;2023-03-04T17:14:35;7.60;99.90
3713;DHT22;1872;51.406;6.856;2023-03-04T17:17:03;7.60;99.90
3713;DHT22;1872;51.406;6.856;2023-03-04T17:19:29;7.60;99.90
3713;DHT22;1872;51.406;6.856;2023-03-04T17:21:57;7.60;99.90
3713;DHT22;1872;51.406;6.856;2023-03-04T17:24:24;7.60;99.90
3713;DHT22;1872;51.406;6.856;2023-03-04T17:26:50;7.60;99.90
3713;DHT22;1872;51.406;6.856;2023-03-04T17:29:15;7.60;99.90
3713;DHT22;1872;51.406;6.856;2023-03-04T17:31:41;7.60;99.90
3713;DHT22;1872;51.406;6.856;2023-03-04T17:34:07;7.50;99.90
3713;DHT22;1872;51.406;6.856;2023-03-04T17:36:33;7.50;99.90
3713;DHT22;1872;51.406;6.856;2023-03-04T17:39:01;7.50;99.90
3713;DHT22;1872;51.406;6.856;2023-03-04T17:41:27;7.50;99.90
3713;DHT22;1872;51.406;6.856;2023-03-04T17:43:53;7.50;99.90
3713;DHT22;1872;51.406;6.856;2023-03-04T17:46:21;7.50;99.90
3713;DHT22;1872;51.406;6.856;2023-03-04T17:48:47;7.50;99.90
3713;DHT22;1872;51.406;6.856;2023-03-04T17:51:13;7.50;99.90
3713;DHT22;1872;51.406;6.856;2023-03-04T17:53:40;7.40;99.90
3713;DHT22;1872;51.406;6.856;2023-03-04T17:56:08;7.40;99.90
3713;DHT22;1872;51.406;6.856;2023-03-04T17:58:35;7.40;99.90
3713;DHT22;1872;51.406;6.856;2023-03-04T18:01:14;7.30;99.90
3713;DHT22;1872;51.406;6.856;2023-03-04T18:03:40;7.30;99.90
3713;DHT22;1872;51.406;6.856;2023-03-04T18:06:06;7.30;99.90
3713;DHT22;1872;51.406;6.856;2023-03-04T18:08:32;7.40;99.90
3713;DHT22;1872;51.406;6.856;2023-03-04T18:10:58;7.40;99.90
3713;DHT22;1872;51.406;6.856;2023-03-04T18:13:23;7.40;99.90
3713;DHT22;1872;51.406;6.856;2023-03-04T18:15:49;7.40;99.90
3713;DHT22;1872;51.406;6.856;2023-03-04T18:18:16;7.40;99.90
3713;DHT22;1872;51.406;6.856;2023-03-04T18:20:42;7.30;99.90
3713;DHT22;1872;51.406;6.856;2023-03-04T18:23:09;7.30;99.90
3713;DHT22;1872;51.406;6.856;2023-03-04T18:25:35;7.30;99.90
3713;DHT22;1872;51.406;6.856;2023-03-04T18:28:02;7.30;99.90
3713;DHT22;1872;51.406;6.856;2023-03-04T18:30:28;7.30;99.90
3713;DHT22;1872;51.406;6.856;2023-03-04T18:32:55;7.30;99.90
3713;DHT22;1872;51.406;6.856;2023-03-04T18:35:25;7.20;99.90
3713;DHT22;1872;51.406;6.856;2023-03-04T18:37:55;7.20;99.90
3713;DHT22;1872;51.406;6.856;2023-03-04T18:40:24;7.20;99.90
3713;DHT22;1872;51.406;6.856;2023-03-04T18:42:52;7.20;99.90
3713;DHT22;1872;51.406;6.856;2023-03-04T18:45:18;7.20;99.90
3713;DHT22;1872;51.406;6.856;2023-03-04T18:47:48;7.20;99.90
3713;DHT22;1872;51.406;6.856;2023-03-04T18:50:21;7.20;99.90
3713;DHT22;1872;51.406;6.856;2023-03-04T18:52:47;7.20;99.90
3713;DHT22;1872;51.406;6.856;2023-03-04T18:55:15;7.10;99.90
3713;DHT22;1872;51.406;6.856;2023-03-04T18:57:51;7.10;99.90
3713;DHT22;1872;51.406;6.856;2023-03-04T19:00:20;7.10;99.90
3713;DHT22;1872;51.406;6.856;2023-03-04T19:02:55;7.10;99.90
3713;DHT22;1872;51.406;6.856;2023-03-04T19:05:24;7.10;99.90